This is the latest recevied weather packets stored in our database for station/object K8BCO. If no packets are shown the sender has not sent any weather packets the latest 10 day(s).
| Time | Temp. | Humidity | Pressure | Rain* | Wind** | Luminosity | Snow |
|---|---|---|---|---|---|---|---|
| 1777484118 | 5.56° C | 73% | 1015.6 hPa | 0 mm | - | 551 W/m² | - |
| 1777483517 | 6.11° C | 73% | 1015.6 hPa | 0 mm | - | 532 W/m² | - |
| 1777482917 | 6.11° C | 73% | 1015.6 hPa | 0 mm | - | 599 W/m² | - |
| 1777482318 | 6.11° C | 72% | 1015.6 hPa | 0 mm | - | 876 W/m² | - |
| 1777481717 | 6.11° C | 73% | 1015.6 hPa | 0 mm | - | 753 W/m² | - |
| 1777481119 | 5.56° C | 73% | 1015.7 hPa | 0 mm | - | 646 W/m² | - |
| 1777480518 | 6.11° C | 73% | 1015.7 hPa | 0 mm | - | 525 W/m² | - |
| 1777479918 | 5.56° C | 73% | 1015.8 hPa | 0 mm | - | 533 W/m² | - |
| 1777479316 | 6.11° C | 72% | 1015.7 hPa | 0 mm | - | 564 W/m² | - |
| 1777478716 | 6.11° C | 72% | 1015.7 hPa | 0 mm | - | 598 W/m² | - |
| 1777478117 | 6.67° C | 71% | 1015.8 hPa | 0 mm | - | 545 W/m² | - |
| 1777477516 | 6.11° C | 71% | 1015.8 hPa | 0 mm | - | 669 W/m² | - |
| 1777476917 | 6.11° C | 72% | 1015.8 hPa | 0 mm | - | 626 W/m² | - |
| 1777476316 | 5.56° C | 72% | 1015.9 hPa | 0 mm | - | 558 W/m² | - |
| 1777475716 | 6.11° C | 72% | 1015.8 hPa | 0 mm | - | 536 W/m² | - |
| 1777475117 | 6.67° C | 71% | 1015.8 hPa | 0 mm | - | 542 W/m² | - |
| 1777474517 | 6.67° C | 69% | 1015.8 hPa | 0 mm | - | 433 W/m² | - |
| 1777473917 | 6.11° C | 67% | 1015.8 hPa | 0 mm | - | 366 W/m² | - |
| 1777473317 | 6.11° C | 67% | 1015.8 hPa | 0 mm | - | 363 W/m² | - |
| 1777472718 | 6.11° C | 70% | 1015.8 hPa | 0 mm | - | 434 W/m² | - |
| 1777472117 | 6.11° C | 71% | 1015.9 hPa | 0 mm | - | 413 W/m² | - |
| 1777471521 | 5.56° C | 71% | 1015.9 hPa | 0 mm | - | 471 W/m² | - |
| 1777470918 | 5° C | 73% | 1016.1 hPa | 0 mm | - | 371 W/m² | - |
| 1777470317 | 4.44° C | 75% | 1016.2 hPa | 0 mm | - | 390 W/m² | - |
| 1777469718 | 3.89° C | 79% | 1016.3 hPa | 0 mm | - | 241 W/m² | - |
* Rain latest hour (hover to see other rain measurements)
** Current wind speed in m/s (hover to see current wind gust speed)